Swansea, Tasmania

9:20 PM AEDT on January 28, 2015 (GMT +1100)
The Grange Hills Swansea | Change Station
CLOSE
Current Station
Personal Weather Station
Location: Swansea, TASMANIA
Elevation: 79 ft
Nearby Weather Stations

Elev 79 ft 42.04 °S, 148.08 °E | Updated 20 seconds ago

Mostly Cloudy
Mostly Cloudy
54.0 °F
Feels Like 54.0 °F
N
2.0
Wind Variable Wind from ENE
Gusts 8.0 mph

Today
High -- | Low -- °F
--% Chance of Precip.
Yesterday
High -- | Low -- °F
Precip. -- in
6:05 AM 8:34 PM
Waxing Gibbous, 63% visible
Pressure 30.27 in
Visibility 6.2 miles
Clouds Scattered Clouds 3000 ft
Mostly Cloudy 6000 ft
Dew Point 49 °F
Humidity 82%
Rainfall 0.27 in
Snow Depth Not available.
UV 0 out of 12
Pollen Not available.
Air Quality Not available.
Flu Activity Not available.
METAR YMHB 281000Z 16017KT 9999 SCT030 BKN060 14/06 Q1025

More Conditions Fewer Conditions

Pressure 30.27 in
Visibility 6.2 miles
Clouds Scattered Clouds 3000 ft
Mostly Cloudy 6000 ft
Dew Point 49 °F
Humidity 82%
Rainfall 0.27 in
Snow Depth Not available.
UV 0 out of 12
Pollen Not available.
Air Quality Not available.
Flu Activity Not available.
METAR YMHB 281000Z 16017KT 9999 SCT030 BKN060 14/06 Q1025

More Conditions Fewer Conditions

10-Day Weather Forecast

Almanac

Astronomy

Jan. 28, 2015 Rise Set
Actual Time
Civil Twilight
Nautical Twilight
Astronomical Twilight
Moon
Length of Visible Light
Length of Day
Tomorrow will be .
, % of the Moon is Illuminated

Today's Extremes

Country Highs Country Lows

Community

WunderPhotos

Upload Photos

1,791,121 photos uploaded!

WunderBlogs® & News

Nearby

Air Quality

  Air Quality AQ Index Pollutant
Not available.

Snow Depth

Station Depth Elevation

Earthquake Activity

City Distance Mag. Time & Date
Minimum magnitude displayed is 2.5.

Coastal Water Temperatures

Place Temperature

Nearby Weather Stations